sensor_id;sensor_type;location;lat;lon;timestamp;temperature;humidity
39983;DHT22;25670;44.782;10.356;2022-12-29T00:02:14;8.60;99.90
39983;DHT22;25670;44.782;10.356;2022-12-29T00:07:07;8.60;99.90
39983;DHT22;25670;44.782;10.356;2022-12-29T00:09:34;8.60;99.90
39983;DHT22;25670;44.782;10.356;2022-12-29T00:12:01;8.70;99.90
39983;DHT22;25670;44.782;10.356;2022-12-29T00:14:28;8.50;99.90
39983;DHT22;25670;44.782;10.356;2022-12-29T00:17:33;9.20;99.90
39983;DHT22;25670;44.782;10.356;2022-12-29T00:22:44;8.70;99.90
39983;DHT22;25670;44.782;10.356;2022-12-29T00:28:15;8.60;99.90
39983;DHT22;25670;44.782;10.356;2022-12-29T00:31:00;8.50;99.90
39983;DHT22;25670;44.782;10.356;2022-12-29T00:36:39;8.50;99.90
39983;DHT22;25670;44.782;10.356;2022-12-29T00:39:12;8.60;99.90
39983;DHT22;25670;44.782;10.356;2022-12-29T00:42:06;8.40;99.90
39983;DHT22;25670;44.782;10.356;2022-12-29T00:44:54;8.30;99.90
39983;DHT22;25670;44.782;10.356;2022-12-29T00:54:41;8.40;99.90
39983;DHT22;25670;44.782;10.356;2022-12-29T00:57:09;8.40;99.90
39983;DHT22;25670;44.782;10.356;2022-12-29T01:04:29;8.50;99.90
39983;DHT22;25670;44.782;10.356;2022-12-29T01:06:55;8.40;99.90
39983;DHT22;25670;44.782;10.356;2022-12-29T01:09:21;8.60;99.90
39983;DHT22;25670;44.782;10.356;2022-12-29T01:12:08;8.50;99.90
39983;DHT22;25670;44.782;10.356;2022-12-29T01:14:36;8.50;99.90
39983;DHT22;25670;44.782;10.356;2022-12-29T01:17:03;8.60;99.90
39983;DHT22;25670;44.782;10.356;2022-12-29T01:19:30;8.40;99.90
39983;DHT22;25670;44.782;10.356;2022-12-29T01:21:56;8.40;99.90
39983;DHT22;25670;44.782;10.356;2022-12-29T01:29:16;8.50;99.90
39983;DHT22;25670;44.782;10.356;2022-12-29T01:31:45;12.30;99.90
39983;DHT22;25670;44.782;10.356;2022-12-29T01:34:12;8.40;99.90
39983;DHT22;25670;44.782;10.356;2022-12-29T01:36:39;8.30;99.90
39983;DHT22;25670;44.782;10.356;2022-12-29T01:39:05;8.40;99.90
39983;DHT22;25670;44.782;10.356;2022-12-29T01:41:31;8.50;99.90
39983;DHT22;25670;44.782;10.356;2022-12-29T01:43:59;8.90;99.90
39983;DHT22;25670;44.782;10.356;2022-12-29T01:46:38;8.40;99.90
39983;DHT22;25670;44.782;10.356;2022-12-29T01:49:12;8.30;99.90
39983;DHT22;25670;44.782;10.356;2022-12-29T01:51:42;8.30;99.90
39983;DHT22;25670;44.782;10.356;2022-12-29T01:54:16;8.40;99.90
39983;DHT22;25670;44.782;10.356;2022-12-29T01:59:19;8.40;99.90
39983;DHT22;25670;44.782;10.356;2022-12-29T02:01:46;8.40;99.90
39983;DHT22;25670;44.782;10.356;2022-12-29T02:04:15;8.40;99.90
39983;DHT22;25670;44.782;10.356;2022-12-29T02:06:57;8.40;99.90
39983;DHT22;25670;44.782;10.356;2022-12-29T02:09:25;8.40;99.90
39983;DHT22;25670;44.782;10.356;2022-12-29T02:11:52;8.20;99.90
39983;DHT22;25670;44.782;10.356;2022-12-29T02:14:19;8.40;99.90
39983;DHT22;25670;44.782;10.356;2022-12-29T02:22:30;8.30;99.90
39983;DHT22;25670;44.782;10.356;2022-12-29T02:33:46;8.20;99.90
39983;DHT22;25670;44.782;10.356;2022-12-29T02:42:33;8.40;99.90
39983;DHT22;25670;44.782;10.356;2022-12-29T02:50:43;8.40;99.90
39983;DHT22;25670;44.782;10.356;2022-12-29T02:53:14;8.30;99.90
39983;DHT22;25670;44.782;10.356;2022-12-29T02:55:51;8.70;99.90
39983;DHT22;25670;44.782;10.356;2022-12-29T02:58:21;8.30;99.90
39983;DHT22;25670;44.782;10.356;2022-12-29T03:09:35;8.30;99.90
39983;DHT22;25670;44.782;10.356;2022-12-29T03:14:57;8.40;99.90
39983;DHT22;25670;44.782;10.356;2022-12-29T03:18:09;8.30;99.90
39983;DHT22;25670;44.782;10.356;2022-12-29T03:20:47;9.10;99.90
39983;DHT22;25670;44.782;10.356;2022-12-29T03:25:48;8.00;99.90
39983;DHT22;25670;44.782;10.356;2022-12-29T03:28:25;8.20;99.90
39983;DHT22;25670;44.782;10.356;2022-12-29T03:30:55;8.10;99.90
39983;DHT22;25670;44.782;10.356;2022-12-29T03:33:26;8.40;99.90
39983;DHT22;25670;44.782;10.356;2022-12-29T03:35:58;8.30;99.90
39983;DHT22;25670;44.782;10.356;2022-12-29T03:38:37;8.10;99.90
39983;DHT22;25670;44.782;10.356;2022-12-29T03:41:11;8.20;99.90
39983;DHT22;25670;44.782;10.356;2022-12-29T03:43:38;8.30;99.90
39983;DHT22;25670;44.782;10.356;2022-12-29T03:46:06;8.20;99.90
39983;DHT22;25670;44.782;10.356;2022-12-29T03:48:40;8.10;99.90
39983;DHT22;25670;44.782;10.356;2022-12-29T03:51:17;8.20;99.90
39983;DHT22;25670;44.782;10.356;2022-12-29T03:58:37;8.30;99.90
39983;DHT22;25670;44.782;10.356;2022-12-29T04:03:37;8.30;99.90
39983;DHT22;25670;44.782;10.356;2022-12-29T04:06:04;7.90;99.90
39983;DHT22;25670;44.782;10.356;2022-12-29T04:18:27;8.30;99.90
39983;DHT22;25670;44.782;10.356;2022-12-29T04:20:53;8.30;99.90
39983;DHT22;25670;44.782;10.356;2022-12-29T04:23:29;8.40;99.90
39983;DHT22;25670;44.782;10.356;2022-12-29T04:31:15;8.30;99.90
39983;DHT22;25670;44.782;10.356;2022-12-29T04:33:43;8.40;99.90
39983;DHT22;25670;44.782;10.356;2022-12-29T04:36:11;8.20;99.90
39983;DHT22;25670;44.782;10.356;2022-12-29T04:41:05;9.20;99.90
39983;DHT22;25670;44.782;10.356;2022-12-29T04:43:38;8.40;99.90
39983;DHT22;25670;44.782;10.356;2022-12-29T04:54:23;8.50;99.90
39983;DHT22;25670;44.782;10.356;2022-12-29T04:56:59;8.40;99.90
39983;DHT22;25670;44.782;10.356;2022-12-29T04:59:26;8.30;99.90
39983;DHT22;25670;44.782;10.356;2022-12-29T05:04:23;8.40;99.90
39983;DHT22;25670;44.782;10.356;2022-12-29T05:06:49;8.40;99.90
39983;DHT22;25670;44.782;10.356;2022-12-29T05:09:17;8.40;99.90
39983;DHT22;25670;44.782;10.356;2022-12-29T05:14:11;8.30;99.90
39983;DHT22;25670;44.782;10.356;2022-12-29T05:16:37;8.40;99.90
39983;DHT22;25670;44.782;10.356;2022-12-29T05:19:04;8.40;99.90
39983;DHT22;25670;44.782;10.356;2022-12-29T05:21:33;8.30;99.90
39983;DHT22;25670;44.782;10.356;2022-12-29T05:31:47;8.40;99.90
39983;DHT22;25670;44.782;10.356;2022-12-29T05:34:13;8.40;99.90
39983;DHT22;25670;44.782;10.356;2022-12-29T05:41:37;8.40;99.90
39983;DHT22;25670;44.782;10.356;2022-12-29T05:46:51;8.50;99.90
39983;DHT22;25670;44.782;10.356;2022-12-29T05:49:43;8.40;99.90
39983;DHT22;25670;44.782;10.356;2022-12-29T05:52:29;8.30;99.90
39983;DHT22;25670;44.782;10.356;2022-12-29T05:54:56;8.30;99.90
39983;DHT22;25670;44.782;10.356;2022-12-29T05:57:25;8.40;99.90
39983;DHT22;25670;44.782;10.356;2022-12-29T06:00:05;8.40;99.90
39983;DHT22;25670;44.782;10.356;2022-12-29T06:07:36;8.50;99.90
39983;DHT22;25670;44.782;10.356;2022-12-29T06:10:04;8.50;99.90
39983;DHT22;25670;44.782;10.356;2022-12-29T06:12:35;8.40;99.90
39983;DHT22;25670;44.782;10.356;2022-12-29T06:17:28;8.30;99.90
39983;DHT22;25670;44.782;10.356;2022-12-29T06:19:54;8.40;99.90
39983;DHT22;25670;44.782;10.356;2022-12-29T06:32:09;8.50;99.90
39983;DHT22;25670;44.782;10.356;2022-12-29T06:37:07;8.50;99.90
39983;DHT22;25670;44.782;10.356;2022-12-29T06:42:05;8.50;99.90
39983;DHT22;25670;44.782;10.356;2022-12-29T06:47:18;8.40;99.90
39983;DHT22;25670;44.782;10.356;2022-12-29T06:49:44;8.40;99.90
39983;DHT22;25670;44.782;10.356;2022-12-29T06:52:11;8.30;99.90
39983;DHT22;25670;44.782;10.356;2022-12-29T06:59:30;8.40;99.90
39983;DHT22;25670;44.782;10.356;2022-12-29T07:01:56;8.50;99.90
39983;DHT22;25670;44.782;10.356;2022-12-29T07:14:10;8.40;99.90
39983;DHT22;25670;44.782;10.356;2022-12-29T07:16:37;8.00;99.90
39983;DHT22;25670;44.782;10.356;2022-12-29T07:19:03;8.40;99.90
39983;DHT22;25670;44.782;10.356;2022-12-29T07:21:29;8.30;99.90
39983;DHT22;25670;44.782;10.356;2022-12-29T07:23:56;8.50;99.90
39983;DHT22;25670;44.782;10.356;2022-12-29T07:26:22;8.60;99.90
39983;DHT22;25670;44.782;10.356;2022-12-29T07:31:18;8.60;99.90
39983;DHT22;25670;44.782;10.356;2022-12-29T07:36:12;8.60;99.90
39983;DHT22;25670;44.782;10.356;2022-12-29T07:38:38;8.60;99.90
39983;DHT22;25670;44.782;10.356;2022-12-29T07:46:21;8.80;99.90
39983;DHT22;25670;44.782;10.356;2022-12-29T07:48:48;8.40;99.90
39983;DHT22;25670;44.782;10.356;2022-12-29T07:51:14;8.80;99.90
39983;DHT22;25670;44.782;10.356;2022-12-29T07:53:40;9.00;99.90
39983;DHT22;25670;44.782;10.356;2022-12-29T07:56:06;9.00;99.90
39983;DHT22;25670;44.782;10.356;2022-12-29T07:58:32;9.00;99.90
39983;DHT22;25670;44.782;10.356;2022-12-29T08:00:59;9.30;99.90
39983;DHT22;25670;44.782;10.356;2022-12-29T08:03:25;9.20;99.90
39983;DHT22;25670;44.782;10.356;2022-12-29T08:05:52;9.30;99.90
39983;DHT22;25670;44.782;10.356;2022-12-29T08:08:18;9.30;99.90
39983;DHT22;25670;44.782;10.356;2022-12-29T08:10:46;9.40;99.90
39983;DHT22;25670;44.782;10.356;2022-12-29T08:13:12;9.40;99.90
39983;DHT22;25670;44.782;10.356;2022-12-29T08:15:38;10.20;99.90
39983;DHT22;25670;44.782;10.356;2022-12-29T08:20:32;9.10;99.90
39983;DHT22;25670;44.782;10.356;2022-12-29T08:22:58;9.20;99.90
39983;DHT22;25670;44.782;10.356;2022-12-29T08:25:24;9.20;99.90
39983;DHT22;25670;44.782;10.356;2022-12-29T08:27:51;9.30;99.90
39983;DHT22;25670;44.782;10.356;2022-12-29T08:30:17;9.40;99.90
39983;DHT22;25670;44.782;10.356;2022-12-29T08:32:43;9.40;99.90
39983;DHT22;25670;44.782;10.356;2022-12-29T08:37:36;9.30;99.90
39983;DHT22;25670;44.782;10.356;2022-12-29T08:42:30;9.20;99.90
39983;DHT22;25670;44.782;10.356;2022-12-29T08:44:58;9.20;99.90
39983;DHT22;25670;44.782;10.356;2022-12-29T08:47:24;9.20;99.90
39983;DHT22;25670;44.782;10.356;2022-12-29T08:49:51;9.40;99.90
39983;DHT22;25670;44.782;10.356;2022-12-29T08:52:18;9.30;99.90
39983;DHT22;25670;44.782;10.356;2022-12-29T08:57:11;9.20;99.90
39983;DHT22;25670;44.782;10.356;2022-12-29T08:59:48;9.60;99.90
39983;DHT22;25670;44.782;10.356;2022-12-29T09:02:15;9.20;99.90
39983;DHT22;25670;44.782;10.356;2022-12-29T09:07:07;9.30;99.90
39983;DHT22;25670;44.782;10.356;2022-12-29T09:14:27;9.60;99.90
39983;DHT22;25670;44.782;10.356;2022-12-29T09:24:32;9.50;99.90
39983;DHT22;25670;44.782;10.356;2022-12-29T09:26:58;9.50;99.90
39983;DHT22;25670;44.782;10.356;2022-12-29T09:29:24;9.60;99.90
39983;DHT22;25670;44.782;10.356;2022-12-29T09:31:50;9.70;99.90
39983;DHT22;25670;44.782;10.356;2022-12-29T09:36:43;9.80;99.90
39983;DHT22;25670;44.782;10.356;2022-12-29T09:39:09;9.70;99.90
39983;DHT22;25670;44.782;10.356;2022-12-29T09:41:40;9.60;99.90
39983;DHT22;25670;44.782;10.356;2022-12-29T09:44:31;9.70;99.90
39983;DHT22;25670;44.782;10.356;2022-12-29T09:47:01;9.70;99.90
39983;DHT22;25670;44.782;10.356;2022-12-29T09:49:47;9.70;99.90
39983;DHT22;25670;44.782;10.356;2022-12-29T09:52:24;9.70;99.90
39983;DHT22;25670;44.782;10.356;2022-12-29T09:55:16;9.60;99.90
39983;DHT22;25670;44.782;10.356;2022-12-29T09:58:02;9.90;99.90
39983;DHT22;25670;44.782;10.356;2022-12-29T10:00:54;9.90;99.90
39983;DHT22;25670;44.782;10.356;2022-12-29T10:03:28;9.90;99.90
39983;DHT22;25670;44.782;10.356;2022-12-29T10:15:11;10.00;99.90
39983;DHT22;25670;44.782;10.356;2022-12-29T10:17:54;10.50;99.90
39983;DHT22;25670;44.782;10.356;2022-12-29T10:21:01;10.20;99.90
39983;DHT22;25670;44.782;10.356;2022-12-29T10:25:58;10.10;99.90
39983;DHT22;25670;44.782;10.356;2022-12-29T10:28:50;10.50;99.90
39983;DHT22;25670;44.782;10.356;2022-12-29T10:31:23;10.60;99.90
39983;DHT22;25670;44.782;10.356;2022-12-29T10:33:59;10.60;99.90
39983;DHT22;25670;44.782;10.356;2022-12-29T10:36:35;10.90;99.90
39983;DHT22;25670;44.782;10.356;2022-12-29T10:39:14;11.00;99.90
39983;DHT22;25670;44.782;10.356;2022-12-29T10:41:53;11.30;99.90
39983;DHT22;25670;44.782;10.356;2022-12-29T10:44:21;11.30;99.90
39983;DHT22;25670;44.782;10.356;2022-12-29T10:46:58;11.30;99.90
39983;DHT22;25670;44.782;10.356;2022-12-29T10:49:28;11.40;99.90
39983;DHT22;25670;44.782;10.356;2022-12-29T10:51:59;11.20;99.90
39983;DHT22;25670;44.782;10.356;2022-12-29T10:57:33;11.30;99.90
39983;DHT22;25670;44.782;10.356;2022-12-29T11:00:01;11.40;99.90
39983;DHT22;25670;44.782;10.356;2022-12-29T11:08:08;11.30;99.90
39983;DHT22;25670;44.782;10.356;2022-12-29T11:10:40;11.00;99.90
39983;DHT22;25670;44.782;10.356;2022-12-29T11:16:03;11.10;99.90
39983;DHT22;25670;44.782;10.356;2022-12-29T11:21:05;10.50;99.90
39983;DHT22;25670;44.782;10.356;2022-12-29T11:28:41;10.40;99.90
39983;DHT22;25670;44.782;10.356;2022-12-29T11:31:08;10.20;99.90
39983;DHT22;25670;44.782;10.356;2022-12-29T11:33:38;10.80;99.90
39983;DHT22;25670;44.782;10.356;2022-12-29T11:36:14;10.20;99.90
39983;DHT22;25670;44.782;10.356;2022-12-29T11:38:53;10.10;99.90
39983;DHT22;25670;44.782;10.356;2022-12-29T11:41:28;10.20;99.90
39983;DHT22;25670;44.782;10.356;2022-12-29T11:43:58;10.20;99.90
39983;DHT22;25670;44.782;10.356;2022-12-29T11:46:29;10.20;99.90
39983;DHT22;25670;44.782;10.356;2022-12-29T11:48:58;10.10;99.90
39983;DHT22;25670;44.782;10.356;2022-12-29T11:51:29;10.20;99.90
39983;DHT22;25670;44.782;10.356;2022-12-29T11:53:59;10.20;99.90
39983;DHT22;25670;44.782;10.356;2022-12-29T11:56:36;10.20;99.90
39983;DHT22;25670;44.782;10.356;2022-12-29T12:01:57;10.20;99.90
39983;DHT22;25670;44.782;10.356;2022-12-29T12:04:34;10.20;99.90
39983;DHT22;25670;44.782;10.356;2022-12-29T12:07:15;10.20;99.90
39983;DHT22;25670;44.782;10.356;2022-12-29T12:09:51;10.20;99.90
39983;DHT22;25670;44.782;10.356;2022-12-29T12:12:32;10.00;99.90
39983;DHT22;25670;44.782;10.356;2022-12-29T12:15:03;9.90;99.90
39983;DHT22;25670;44.782;10.356;2022-12-29T12:18:00;10.20;99.90
39983;DHT22;25670;44.782;10.356;2022-12-29T12:20:46;9.60;99.90
39983;DHT22;25670;44.782;10.356;2022-12-29T12:26:28;9.50;99.90
39983;DHT22;25670;44.782;10.356;2022-12-29T12:29:01;9.70;99.90
39983;DHT22;25670;44.782;10.356;2022-12-29T12:34:10;9.60;99.90
39983;DHT22;25670;44.782;10.356;2022-12-29T12:39:43;9.30;99.90
39983;DHT22;25670;44.782;10.356;2022-12-29T12:49:19;8.90;99.90
39983;DHT22;25670;44.782;10.356;2022-12-29T12:52:24;9.30;99.90
39983;DHT22;25670;44.782;10.356;2022-12-29T12:58:02;9.50;99.90
39983;DHT22;25670;44.782;10.356;2022-12-29T13:00:47;9.40;99.90
39983;DHT22;25670;44.782;10.356;2022-12-29T13:09:05;9.30;99.90
39983;DHT22;25670;44.782;10.356;2022-12-29T13:17:35;9.10;99.90
39983;DHT22;25670;44.782;10.356;2022-12-29T13:20:24;9.00;99.90
39983;DHT22;25670;44.782;10.356;2022-12-29T13:22:55;9.00;99.90
39983;DHT22;25670;44.782;10.356;2022-12-29T13:31:00;9.10;99.90
39983;DHT22;25670;44.782;10.356;2022-12-29T13:36:27;9.50;99.90
39983;DHT22;25670;44.782;10.356;2022-12-29T13:39:02;9.50;99.90
39983;DHT22;25670;44.782;10.356;2022-12-29T13:41:35;9.60;99.90
39983;DHT22;25670;44.782;10.356;2022-12-29T13:44:03;9.80;99.90
39983;DHT22;25670;44.782;10.356;2022-12-29T13:46:43;9.60;99.90
39983;DHT22;25670;44.782;10.356;2022-12-29T13:49:20;9.90;99.90
39983;DHT22;25670;44.782;10.356;2022-12-29T13:52:04;9.50;99.90
39983;DHT22;25670;44.782;10.356;2022-12-29T13:57:40;9.50;99.90
39983;DHT22;25670;44.782;10.356;2022-12-29T14:00:20;9.50;99.90
39983;DHT22;25670;44.782;10.356;2022-12-29T14:05:30;11.70;99.90
39983;DHT22;25670;44.782;10.356;2022-12-29T14:08:03;9.50;99.90
39983;DHT22;25670;44.782;10.356;2022-12-29T14:10:38;9.50;99.90
39983;DHT22;25670;44.782;10.356;2022-12-29T14:13:13;9.40;99.90
39983;DHT22;25670;44.782;10.356;2022-12-29T14:15:43;9.40;99.90
39983;DHT22;25670;44.782;10.356;2022-12-29T14:18:21;9.50;99.90
39983;DHT22;25670;44.782;10.356;2022-12-29T14:21:10;9.40;99.90
39983;DHT22;25670;44.782;10.356;2022-12-29T14:23:39;9.30;99.90
39983;DHT22;25670;44.782;10.356;2022-12-29T14:31:01;9.40;99.90
39983;DHT22;25670;44.782;10.356;2022-12-29T14:33:30;9.30;99.90
39983;DHT22;25670;44.782;10.356;2022-12-29T14:36:26;9.30;99.90
39983;DHT22;25670;44.782;10.356;2022-12-29T14:38:58;9.30;99.90
39983;DHT22;25670;44.782;10.356;2022-12-29T14:43:57;9.30;99.90
39983;DHT22;25670;44.782;10.356;2022-12-29T14:46:25;9.30;99.90
39983;DHT22;25670;44.782;10.356;2022-12-29T14:48:56;9.40;99.90
39983;DHT22;25670;44.782;10.356;2022-12-29T14:51:42;9.30;99.90
39983;DHT22;25670;44.782;10.356;2022-12-29T14:57:10;9.60;99.90
39983;DHT22;25670;44.782;10.356;2022-12-29T14:59:39;9.20;99.90
39983;DHT22;25670;44.782;10.356;2022-12-29T15:02:16;9.30;99.90
39983;DHT22;25670;44.782;10.356;2022-12-29T15:04:44;9.30;99.90
39983;DHT22;25670;44.782;10.356;2022-12-29T15:07:13;9.30;99.90
39983;DHT22;25670;44.782;10.356;2022-12-29T15:09:44;9.20;99.90
39983;DHT22;25670;44.782;10.356;2022-12-29T15:14:58;9.10;99.90
39983;DHT22;25670;44.782;10.356;2022-12-29T15:17:34;9.10;99.90
39983;DHT22;25670;44.782;10.356;2022-12-29T15:20:30;9.00;99.90
39983;DHT22;25670;44.782;10.356;2022-12-29T15:23:17;9.30;99.90
39983;DHT22;25670;44.782;10.356;2022-12-29T15:25:56;9.00;99.90
39983;DHT22;25670;44.782;10.356;2022-12-29T15:28:23;9.00;99.90
39983;DHT22;25670;44.782;10.356;2022-12-29T15:31:02;8.80;99.90
39983;DHT22;25670;44.782;10.356;2022-12-29T15:33:29;9.00;99.90
39983;DHT22;25670;44.782;10.356;2022-12-29T15:35:57;9.00;99.90
39983;DHT22;25670;44.782;10.356;2022-12-29T15:38:30;8.90;99.90
39983;DHT22;25670;44.782;10.356;2022-12-29T15:41:00;8.80;99.90
39983;DHT22;25670;44.782;10.356;2022-12-29T15:43:40;8.80;99.90
39983;DHT22;25670;44.782;10.356;2022-12-29T15:46:11;9.40;99.90
39983;DHT22;25670;44.782;10.356;2022-12-29T15:48:38;9.00;99.90
39983;DHT22;25670;44.782;10.356;2022-12-29T15:51:28;8.90;99.90
39983;DHT22;25670;44.782;10.356;2022-12-29T15:53:55;9.40;99.90
39983;DHT22;25670;44.782;10.356;2022-12-29T15:58:51;9.00;99.90
39983;DHT22;25670;44.782;10.356;2022-12-29T16:01:32;8.90;99.90
39983;DHT22;25670;44.782;10.356;2022-12-29T16:04:01;9.50;99.90
39983;DHT22;25670;44.782;10.356;2022-12-29T16:06:34;9.00;99.90
39983;DHT22;25670;44.782;10.356;2022-12-29T16:09:06;9.10;99.90
39983;DHT22;25670;44.782;10.356;2022-12-29T16:11:37;9.00;99.90
39983;DHT22;25670;44.782;10.356;2022-12-29T16:14:13;9.10;99.90
39983;DHT22;25670;44.782;10.356;2022-12-29T16:16:42;9.00;99.90
39983;DHT22;25670;44.782;10.356;2022-12-29T16:19:26;9.00;99.90
39983;DHT22;25670;44.782;10.356;2022-12-29T16:21:53;9.00;99.90
39983;DHT22;25670;44.782;10.356;2022-12-29T16:24:26;10.80;99.90
39983;DHT22;25670;44.782;10.356;2022-12-29T16:26:55;9.00;99.90
39983;DHT22;25670;44.782;10.356;2022-12-29T16:29:22;8.80;99.90
39983;DHT22;25670;44.782;10.356;2022-12-29T16:31:53;8.90;99.90
39983;DHT22;25670;44.782;10.356;2022-12-29T16:34:34;8.80;99.90
39983;DHT22;25670;44.782;10.356;2022-12-29T16:37:31;8.80;99.90
39983;DHT22;25670;44.782;10.356;2022-12-29T16:47:47;8.90;99.90
39983;DHT22;25670;44.782;10.356;2022-12-29T16:50:18;8.80;99.90
39983;DHT22;25670;44.782;10.356;2022-12-29T16:52:49;8.70;99.90
39983;DHT22;25670;44.782;10.356;2022-12-29T16:55:17;8.70;99.90
39983;DHT22;25670;44.782;10.356;2022-12-29T16:57:46;8.80;99.90
39983;DHT22;25670;44.782;10.356;2022-12-29T17:02:54;8.40;99.90
39983;DHT22;25670;44.782;10.356;2022-12-29T17:05:22;8.70;99.90
39983;DHT22;25670;44.782;10.356;2022-12-29T17:07:48;8.80;99.90
39983;DHT22;25670;44.782;10.356;2022-12-29T17:12:43;8.80;99.90
39983;DHT22;25670;44.782;10.356;2022-12-29T17:15:26;8.60;99.90
39983;DHT22;25670;44.782;10.356;2022-12-29T17:17:56;8.80;99.90
39983;DHT22;25670;44.782;10.356;2022-12-29T17:20:25;8.80;99.90
39983;DHT22;25670;44.782;10.356;2022-12-29T17:22:55;8.70;99.90
39983;DHT22;25670;44.782;10.356;2022-12-29T17:25:37;8.80;99.90
39983;DHT22;25670;44.782;10.356;2022-12-29T17:28:12;8.70;99.90
39983;DHT22;25670;44.782;10.356;2022-12-29T17:33:14;8.60;99.90
39983;DHT22;25670;44.782;10.356;2022-12-29T17:35:42;8.70;99.90
39983;DHT22;25670;44.782;10.356;2022-12-29T17:38:34;8.80;99.90
39983;DHT22;25670;44.782;10.356;2022-12-29T17:41:00;8.70;99.90
39983;DHT22;25670;44.782;10.356;2022-12-29T17:45:55;8.80;99.90
39983;DHT22;25670;44.782;10.356;2022-12-29T17:50:52;8.70;99.90
39983;DHT22;25670;44.782;10.356;2022-12-29T17:53:22;8.60;99.90
39983;DHT22;25670;44.782;10.356;2022-12-29T17:58:29;8.50;99.90
39983;DHT22;25670;44.782;10.356;2022-12-29T18:00:58;8.70;99.90
39983;DHT22;25670;44.782;10.356;2022-12-29T18:03:30;8.50;99.90
39983;DHT22;25670;44.782;10.356;2022-12-29T18:08:24;8.70;99.90
39983;DHT22;25670;44.782;10.356;2022-12-29T18:10:51;9.00;99.90
39983;DHT22;25670;44.782;10.356;2022-12-29T18:18:14;8.80;99.90
39983;DHT22;25670;44.782;10.356;2022-12-29T18:20:41;8.80;99.90
39983;DHT22;25670;44.782;10.356;2022-12-29T18:23:31;8.80;99.90
39983;DHT22;25670;44.782;10.356;2022-12-29T18:26:21;9.40;99.90
39983;DHT22;25670;44.782;10.356;2022-12-29T18:28:49;9.50;99.90
39983;DHT22;25670;44.782;10.356;2022-12-29T18:31:19;8.90;99.90
39983;DHT22;25670;44.782;10.356;2022-12-29T18:33:47;8.90;99.90
39983;DHT22;25670;44.782;10.356;2022-12-29T18:36:14;8.80;99.90
39983;DHT22;25670;44.782;10.356;2022-12-29T18:38:41;8.70;99.90
39983;DHT22;25670;44.782;10.356;2022-12-29T18:41:22;8.80;99.90
39983;DHT22;25670;44.782;10.356;2022-12-29T18:43:48;8.80;99.90
39983;DHT22;25670;44.782;10.356;2022-12-29T18:46:15;8.50;99.90
39983;DHT22;25670;44.782;10.356;2022-12-29T18:48:41;8.70;99.90
39983;DHT22;25670;44.782;10.356;2022-12-29T18:51:15;8.30;99.90
39983;DHT22;25670;44.782;10.356;2022-12-29T18:53:43;9.40;99.90
39983;DHT22;25670;44.782;10.356;2022-12-29T18:58:37;8.60;99.90
39983;DHT22;25670;44.782;10.356;2022-12-29T19:01:03;8.70;99.90
39983;DHT22;25670;44.782;10.356;2022-12-29T19:03:30;8.30;99.90
39983;DHT22;25670;44.782;10.356;2022-12-29T19:05:57;8.90;99.90
39983;DHT22;25670;44.782;10.356;2022-12-29T19:08:23;8.70;99.90
39983;DHT22;25670;44.782;10.356;2022-12-29T19:13:19;8.50;99.90
39983;DHT22;25670;44.782;10.356;2022-12-29T19:15:46;8.60;99.90
39983;DHT22;25670;44.782;10.356;2022-12-29T19:18:18;8.60;99.90
39983;DHT22;25670;44.782;10.356;2022-12-29T19:20:46;8.70;99.90
39983;DHT22;25670;44.782;10.356;2022-12-29T19:23:15;8.50;99.90
39983;DHT22;25670;44.782;10.356;2022-12-29T19:25:42;9.00;99.90
39983;DHT22;25670;44.782;10.356;2022-12-29T19:28:25;8.40;99.90
39983;DHT22;25670;44.782;10.356;2022-12-29T19:30:53;8.70;99.90
39983;DHT22;25670;44.782;10.356;2022-12-29T19:33:22;8.80;99.90
39983;DHT22;25670;44.782;10.356;2022-12-29T19:35:49;8.80;99.90
39983;DHT22;25670;44.782;10.356;2022-12-29T19:38:15;8.80;99.90
39983;DHT22;25670;44.782;10.356;2022-12-29T19:40:45;8.70;99.90
39983;DHT22;25670;44.782;10.356;2022-12-29T19:43:13;8.80;99.90
39983;DHT22;25670;44.782;10.356;2022-12-29T19:45:41;8.80;99.90
39983;DHT22;25670;44.782;10.356;2022-12-29T19:48:12;8.70;99.90
39983;DHT22;25670;44.782;10.356;2022-12-29T19:50:40;9.00;99.90
39983;DHT22;25670;44.782;10.356;2022-12-29T20:02:53;8.60;99.90
39983;DHT22;25670;44.782;10.356;2022-12-29T20:07:50;9.50;99.90
39983;DHT22;25670;44.782;10.356;2022-12-29T20:10:17;8.60;99.90
39983;DHT22;25670;44.782;10.356;2022-12-29T20:15:10;8.60;99.90
39983;DHT22;25670;44.782;10.356;2022-12-29T20:20:03;8.50;99.90
39983;DHT22;25670;44.782;10.356;2022-12-29T20:24:56;8.50;99.90
39983;DHT22;25670;44.782;10.356;2022-12-29T20:29:49;8.60;99.90
39983;DHT22;25670;44.782;10.356;2022-12-29T20:32:19;8.60;99.90
39983;DHT22;25670;44.782;10.356;2022-12-29T20:34:46;8.60;99.90
39983;DHT22;25670;44.782;10.356;2022-12-29T20:37:13;8.60;99.90
39983;DHT22;25670;44.782;10.356;2022-12-29T20:39:41;8.40;99.90
39983;DHT22;25670;44.782;10.356;2022-12-29T20:42:08;9.20;99.90
39983;DHT22;25670;44.782;10.356;2022-12-29T20:47:02;9.30;99.90
39983;DHT22;25670;44.782;10.356;2022-12-29T20:49:31;8.60;99.90
39983;DHT22;25670;44.782;10.356;2022-12-29T20:52:03;8.90;99.90
39983;DHT22;25670;44.782;10.356;2022-12-29T20:54:31;8.60;99.90
39983;DHT22;25670;44.782;10.356;2022-12-29T20:56:57;8.80;99.90
39983;DHT22;25670;44.782;10.356;2022-12-29T20:59:26;9.20;99.90
39983;DHT22;25670;44.782;10.356;2022-12-29T21:14:05;8.70;99.90
39983;DHT22;25670;44.782;10.356;2022-12-29T21:16:31;8.40;99.90
39983;DHT22;25670;44.782;10.356;2022-12-29T21:21:25;8.80;99.90
39983;DHT22;25670;44.782;10.356;2022-12-29T21:23:51;8.50;99.90
39983;DHT22;25670;44.782;10.356;2022-12-29T21:26:20;12.70;99.90
39983;DHT22;25670;44.782;10.356;2022-12-29T21:28:46;8.20;99.90
39983;DHT22;25670;44.782;10.356;2022-12-29T21:31:34;8.70;99.90
39983;DHT22;25670;44.782;10.356;2022-12-29T21:34:03;8.80;99.90
39983;DHT22;25670;44.782;10.356;2022-12-29T21:36:30;8.60;99.90
39983;DHT22;25670;44.782;10.356;2022-12-29T21:38:57;9.00;99.90
39983;DHT22;25670;44.782;10.356;2022-12-29T21:41:24;9.70;99.90
39983;DHT22;25670;44.782;10.356;2022-12-29T21:43:51;8.80;99.90
39983;DHT22;25670;44.782;10.356;2022-12-29T21:46:38;8.70;99.90
39983;DHT22;25670;44.782;10.356;2022-12-29T21:49:06;8.80;99.90
39983;DHT22;25670;44.782;10.356;2022-12-29T21:51:33;8.80;99.90
39983;DHT22;25670;44.782;10.356;2022-12-29T21:54:15;8.70;99.90
39983;DHT22;25670;44.782;10.356;2022-12-29T21:57:00;8.80;99.90
39983;DHT22;25670;44.782;10.356;2022-12-29T22:02:19;8.70;99.90
39983;DHT22;25670;44.782;10.356;2022-12-29T22:05:05;8.70;99.90
39983;DHT22;25670;44.782;10.356;2022-12-29T22:07:51;8.80;99.90
39983;DHT22;25670;44.782;10.356;2022-12-29T22:10:41;8.80;99.90
39983;DHT22;25670;44.782;10.356;2022-12-29T22:13:29;8.70;99.90